CYOA

Ekati Airport

Ekati, Northwest Territories, Canada
METAR CYOA 191900Z 23013KT 15SM FEW060 SCT140 23/09 A2984
Observed Flight Rules
Jun-19 @ 19:00 UTC (an hour ago) Visual Flight Rules
Wind Visibility Clouds
230° at 13 knots 15 miles
  • Few at 6,000' AGL
  • Scattered at 14,000' AGL
Temperatures Readings
Current 23°C / 73°F
Dewpoint 9°C / 48°F
Humidity 41%
Altimeter 29.84" Hg
Pressure 1010 hPa
Elevation 469
METAR CYOA 191900Z 23013KT 15SM FEW060 SCT140 23/09 A2984
Observed Flight Rules
Jun-19 @ 19:00 UTC
(an hour ago)
VFR
Wind Visibility
230° at 13 knots 15 miles
Clouds
  • Few at 6,000' AGL
  • Scattered at 14,000' AGL
Temperature Dewpoint
23°C / 73°F 9°C / 48°F
Humidity Altimeter Pressure
41% 29.84" Hg 1010 hPa